sensor_id;sensor_type;location;lat;lon;timestamp;pressure;altitude;pressure_sealevel;temperature;humidity
30708;BME280;17458;48.958;8.284;2023-05-24T00:00:23;100717.66;;;16.64;52.37
30708;BME280;17458;48.958;8.284;2023-05-24T00:03:07;100723.38;;;17.05;51.47
30708;BME280;17458;48.958;8.284;2023-05-24T00:05:51;100714.88;;;16.89;51.29
30708;BME280;17458;48.958;8.284;2023-05-24T00:08:35;100722.16;;;17.23;51.11
30708;BME280;17458;48.958;8.284;2023-05-24T00:11:20;100713.34;;;16.99;51.46
30708;BME280;17458;48.958;8.284;2023-05-24T00:14:05;100717.66;;;16.92;51.58
30708;BME280;17458;48.958;8.284;2023-05-24T00:16:49;100716.94;;;16.98;51.28
30708;BME280;17458;48.958;8.284;2023-05-24T00:19:33;100711.28;;;16.89;51.37
30708;BME280;17458;48.958;8.284;2023-05-24T00:22:21;100712.41;;;16.67;52.02
30708;BME280;17458;48.958;8.284;2023-05-24T00:25:06;100706.81;;;16.61;51.82
30708;BME280;17458;48.958;8.284;2023-05-24T00:27:50;100698.59;;;16.55;52.05
30708;BME280;17458;48.958;8.284;2023-05-24T00:30:34;100704.69;;;16.78;51.54
30708;BME280;17458;48.958;8.284;2023-05-24T00:33:18;100703.25;;;16.62;52.06
30708;BME280;17458;48.958;8.284;2023-05-24T00:36:06;100704.59;;;16.75;51.87
30708;BME280;17458;48.958;8.284;2023-05-24T00:38:50;100703.75;;;16.49;53.01
30708;BME280;17458;48.958;8.284;2023-05-24T00:41:35;100699.44;;;16.54;52.98
30708;BME280;17458;48.958;8.284;2023-05-24T00:44:19;100706.84;;;16.34;53.43
30708;BME280;17458;48.958;8.284;2023-05-24T00:47:03;100694.91;;;16.51;53.23
30708;BME280;17458;48.958;8.284;2023-05-24T00:49:48;100694.34;;;16.35;53.48
30708;BME280;17458;48.958;8.284;2023-05-24T00:52:32;100696.88;;;16.03;54.59
30708;BME280;17458;48.958;8.284;2023-05-24T00:55:16;100693.22;;;16.26;53.98
30708;BME280;17458;48.958;8.284;2023-05-24T00:58:01;100692.88;;;16.17;53.95
30708;BME280;17458;48.958;8.284;2023-05-24T01:00:46;100700.88;;;16.16;54.04
30708;BME280;17458;48.958;8.284;2023-05-24T01:03:32;100693.03;;;16.22;54.08
30708;BME280;17458;48.958;8.284;2023-05-24T01:06:16;100690.16;;;16.16;53.96
30708;BME280;17458;48.958;8.284;2023-05-24T01:09:24;100684.38;;;16.30;53.96
30708;BME280;17458;48.958;8.284;2023-05-24T01:12:28;100691.22;;;16.21;54.30
30708;BME280;17458;48.958;8.284;2023-05-24T01:18:11;100695.00;;;16.01;55.07
30708;BME280;17458;48.958;8.284;2023-05-24T01:29:47;100693.50;;;16.09;56.36
30708;BME280;17458;48.958;8.284;2023-05-24T01:32:36;100697.94;;;16.08;56.59
30708;BME280;17458;48.958;8.284;2023-05-24T01:35:23;100701.31;;;15.52;58.35
30708;BME280;17458;48.958;8.284;2023-05-24T01:38:07;100699.66;;;15.79;57.46
30708;BME280;17458;48.958;8.284;2023-05-24T01:40:59;100702.16;;;15.75;57.71
30708;BME280;17458;48.958;8.284;2023-05-24T01:43:55;100704.25;;;15.83;57.67
30708;BME280;17458;48.958;8.284;2023-05-24T01:46:40;100706.72;;;15.77;57.23
30708;BME280;17458;48.958;8.284;2023-05-24T01:49:26;100706.13;;;15.86;56.84
30708;BME280;17458;48.958;8.284;2023-05-24T01:52:16;100705.97;;;15.81;56.91
30708;BME280;17458;48.958;8.284;2023-05-24T01:55:02;100705.69;;;15.74;56.95
30708;BME280;17458;48.958;8.284;2023-05-24T01:57:49;100709.63;;;15.83;56.86
30708;BME280;17458;48.958;8.284;2023-05-24T02:00:34;100711.22;;;15.78;56.79
30708;BME280;17458;48.958;8.284;2023-05-24T02:03:19;100711.34;;;15.56;57.04
30708;BME280;17458;48.958;8.284;2023-05-24T02:06:04;100716.53;;;15.53;57.58
30708;BME280;17458;48.958;8.284;2023-05-24T02:08:49;100723.16;;;15.39;57.80
30708;BME280;17458;48.958;8.284;2023-05-24T02:11:33;100717.75;;;15.37;57.44
30708;BME280;17458;48.958;8.284;2023-05-24T02:14:17;100725.09;;;15.43;56.94
30708;BME280;17458;48.958;8.284;2023-05-24T02:17:03;100719.06;;;15.24;57.34
30708;BME280;17458;48.958;8.284;2023-05-24T02:19:48;100726.25;;;15.25;57.63
30708;BME280;17458;48.958;8.284;2023-05-24T02:22:32;100717.50;;;15.31;57.25
30708;BME280;17458;48.958;8.284;2023-05-24T02:25:16;100717.16;;;15.46;57.10
30708;BME280;17458;48.958;8.284;2023-05-24T02:28:00;100724.44;;;15.50;56.92
30708;BME280;17458;48.958;8.284;2023-05-24T02:30:44;100722.72;;;15.27;57.59
30708;BME280;17458;48.958;8.284;2023-05-24T02:33:28;100720.94;;;15.27;57.20
30708;BME280;17458;48.958;8.284;2023-05-24T02:36:12;100722.72;;;15.27;57.53
30708;BME280;17458;48.958;8.284;2023-05-24T02:38:56;100730.75;;;14.80;57.29
30708;BME280;17458;48.958;8.284;2023-05-24T02:41:40;100728.78;;;14.99;57.06
30708;BME280;17458;48.958;8.284;2023-05-24T02:44:24;100727.19;;;15.04;57.15
30708;BME280;17458;48.958;8.284;2023-05-24T02:47:08;100723.78;;;15.08;56.83
30708;BME280;17458;48.958;8.284;2023-05-24T02:49:52;100726.06;;;14.97;56.76
30708;BME280;17458;48.958;8.284;2023-05-24T02:52:37;100732.06;;;15.14;56.28
30708;BME280;17458;48.958;8.284;2023-05-24T02:55:21;100726.44;;;15.32;55.55
30708;BME280;17458;48.958;8.284;2023-05-24T02:58:05;100736.75;;;15.21;55.71
30708;BME280;17458;48.958;8.284;2023-05-24T03:00:52;100730.97;;;15.09;55.60
30708;BME280;17458;48.958;8.284;2023-05-24T03:03:38;100725.34;;;15.01;55.73
30708;BME280;17458;48.958;8.284;2023-05-24T03:06:23;100722.84;;;14.83;55.95
30708;BME280;17458;48.958;8.284;2023-05-24T03:09:08;100722.88;;;15.07;55.35
30708;BME280;17458;48.958;8.284;2023-05-24T03:11:52;100719.72;;;15.19;54.78
30708;BME280;17458;48.958;8.284;2023-05-24T03:14:37;100723.72;;;14.82;55.19
30708;BME280;17458;48.958;8.284;2023-05-24T03:17:21;100718.22;;;15.02;55.07
30708;BME280;17458;48.958;8.284;2023-05-24T03:20:07;100719.13;;;15.26;54.65
30708;BME280;17458;48.958;8.284;2023-05-24T03:22:51;100711.47;;;14.89;55.23
30708;BME280;17458;48.958;8.284;2023-05-24T03:25:35;100709.94;;;14.72;55.39
30708;BME280;17458;48.958;8.284;2023-05-24T03:28:19;100725.81;;;14.91;54.47
30708;BME280;17458;48.958;8.284;2023-05-24T03:31:05;100715.31;;;14.96;54.34
30708;BME280;17458;48.958;8.284;2023-05-24T03:33:50;100720.25;;;14.85;54.29
30708;BME280;17458;48.958;8.284;2023-05-24T03:36:34;100705.97;;;14.84;54.44
30708;BME280;17458;48.958;8.284;2023-05-24T03:39:20;100704.31;;;15.12;54.21
30708;BME280;17458;48.958;8.284;2023-05-24T03:42:26;100708.50;;;14.81;54.74
30708;BME280;17458;48.958;8.284;2023-05-24T03:45:10;100711.56;;;15.14;53.81
30708;BME280;17458;48.958;8.284;2023-05-24T03:47:55;100704.78;;;15.00;53.93
30708;BME280;17458;48.958;8.284;2023-05-24T03:50:39;100703.34;;;14.86;54.36
30708;BME280;17458;48.958;8.284;2023-05-24T03:53:24;100702.69;;;15.15;54.14
30708;BME280;17458;48.958;8.284;2023-05-24T03:56:08;100712.34;;;15.12;54.19
30708;BME280;17458;48.958;8.284;2023-05-24T03:58:52;100716.44;;;15.02;54.44
30708;BME280;17458;48.958;8.284;2023-05-24T04:01:36;100714.00;;;15.08;54.57
30708;BME280;17458;48.958;8.284;2023-05-24T04:04:20;100722.16;;;14.89;55.17
30708;BME280;17458;48.958;8.284;2023-05-24T04:07:04;100728.94;;;14.57;55.13
30708;BME280;17458;48.958;8.284;2023-05-24T04:09:48;100732.78;;;14.86;54.99
30708;BME280;17458;48.958;8.284;2023-05-24T04:12:32;100730.50;;;15.20;54.48
30708;BME280;17458;48.958;8.284;2023-05-24T04:15:17;100727.59;;;14.68;54.63
30708;BME280;17458;48.958;8.284;2023-05-24T04:18:01;100734.22;;;14.35;55.58
30708;BME280;17458;48.958;8.284;2023-05-24T04:20:46;100731.00;;;14.86;54.34
30708;BME280;17458;48.958;8.284;2023-05-24T04:23:30;100730.28;;;14.68;54.70
30708;BME280;17458;48.958;8.284;2023-05-24T04:26:14;100737.09;;;14.39;55.29
30708;BME280;17458;48.958;8.284;2023-05-24T04:28:59;100724.94;;;14.68;54.50
30708;BME280;17458;48.958;8.284;2023-05-24T04:31:43;100733.00;;;14.70;54.58
30708;BME280;17458;48.958;8.284;2023-05-24T04:34:28;100734.00;;;14.72;54.96
30708;BME280;17458;48.958;8.284;2023-05-24T04:37:13;100741.38;;;15.01;54.32
30708;BME280;17458;48.958;8.284;2023-05-24T04:40:01;100743.38;;;14.62;55.48
30708;BME280;17458;48.958;8.284;2023-05-24T04:42:47;100742.38;;;14.59;55.46
30708;BME280;17458;48.958;8.284;2023-05-24T04:45:31;100747.84;;;14.84;55.12
30708;BME280;17458;48.958;8.284;2023-05-24T04:48:16;100748.50;;;14.56;55.87
30708;BME280;17458;48.958;8.284;2023-05-24T04:51:00;100751.38;;;15.07;55.12
30708;BME280;17458;48.958;8.284;2023-05-24T04:53:44;100746.72;;;15.01;55.20
30708;BME280;17458;48.958;8.284;2023-05-24T04:56:28;100747.09;;;14.66;55.52
30708;BME280;17458;48.958;8.284;2023-05-24T04:59:11;100739.31;;;14.49;56.72
30708;BME280;17458;48.958;8.284;2023-05-24T05:01:55;100749.81;;;15.12;55.58
30708;BME280;17458;48.958;8.284;2023-05-24T05:04:39;100750.50;;;14.62;56.42
30708;BME280;17458;48.958;8.284;2023-05-24T05:07:23;100751.53;;;14.43;56.79
30708;BME280;17458;48.958;8.284;2023-05-24T05:10:07;100751.63;;;14.46;56.81
30708;BME280;17458;48.958;8.284;2023-05-24T05:12:52;100754.75;;;14.79;56.13
30708;BME280;17458;48.958;8.284;2023-05-24T05:15:36;100754.38;;;14.92;55.93
30708;BME280;17458;48.958;8.284;2023-05-24T05:18:20;100766.41;;;14.81;56.33
30708;BME280;17458;48.958;8.284;2023-05-24T05:21:04;100763.63;;;14.78;56.23
30708;BME280;17458;48.958;8.284;2023-05-24T05:23:49;100763.91;;;14.63;56.78
30708;BME280;17458;48.958;8.284;2023-05-24T05:26:33;100769.34;;;14.87;56.16
30708;BME280;17458;48.958;8.284;2023-05-24T05:29:18;100765.25;;;14.74;56.42
30708;BME280;17458;48.958;8.284;2023-05-24T05:32:01;100762.31;;;14.46;57.56
30708;BME280;17458;48.958;8.284;2023-05-24T05:34:46;100758.22;;;14.54;57.14
30708;BME280;17458;48.958;8.284;2023-05-24T05:37:29;100758.34;;;14.57;57.41
30708;BME280;17458;48.958;8.284;2023-05-24T05:40:13;100759.13;;;14.54;57.39
30708;BME280;17458;48.958;8.284;2023-05-24T05:42:57;100750.13;;;14.75;57.53
30708;BME280;17458;48.958;8.284;2023-05-24T05:45:41;100747.66;;;14.79;57.04
30708;BME280;17458;48.958;8.284;2023-05-24T05:48:25;100746.34;;;14.92;57.14
30708;BME280;17458;48.958;8.284;2023-05-24T05:51:09;100753.72;;;14.75;57.33
30708;BME280;17458;48.958;8.284;2023-05-24T05:53:53;100754.75;;;15.01;56.76
30708;BME280;17458;48.958;8.284;2023-05-24T05:56:37;100744.59;;;15.16;57.37
30708;BME280;17458;48.958;8.284;2023-05-24T05:59:27;100749.22;;;15.44;56.53
30708;BME280;17458;48.958;8.284;2023-05-24T06:02:11;100752.56;;;14.91;57.01
30708;BME280;17458;48.958;8.284;2023-05-24T06:04:55;100757.44;;;15.01;56.68
30708;BME280;17458;48.958;8.284;2023-05-24T06:07:39;100761.22;;;14.84;58.04
30708;BME280;17458;48.958;8.284;2023-05-24T06:10:23;100762.72;;;14.55;58.69
30708;BME280;17458;48.958;8.284;2023-05-24T06:13:07;100759.88;;;14.30;59.00
30708;BME280;17458;48.958;8.284;2023-05-24T06:15:51;100765.94;;;14.69;58.48
30708;BME280;17458;48.958;8.284;2023-05-24T06:18:35;100768.66;;;14.06;59.08
30708;BME280;17458;48.958;8.284;2023-05-24T06:21:19;100769.88;;;14.56;57.66
30708;BME280;17458;48.958;8.284;2023-05-24T06:24:04;100775.91;;;14.30;57.95
30708;BME280;17458;48.958;8.284;2023-05-24T06:26:52;100770.09;;;13.98;58.99
30708;BME280;17458;48.958;8.284;2023-05-24T06:29:36;100774.97;;;14.50;57.87
30708;BME280;17458;48.958;8.284;2023-05-24T06:32:20;100779.06;;;14.63;57.93
30708;BME280;17458;48.958;8.284;2023-05-24T06:35:04;100789.09;;;14.68;57.95
30708;BME280;17458;48.958;8.284;2023-05-24T06:37:49;100784.81;;;14.51;57.04
30708;BME280;17458;48.958;8.284;2023-05-24T06:40:32;100796.56;;;14.54;56.87
30708;BME280;17458;48.958;8.284;2023-05-24T06:43:16;100801.13;;;14.79;56.39
30708;BME280;17458;48.958;8.284;2023-05-24T06:46:00;100797.63;;;14.39;57.94
30708;BME280;17458;48.958;8.284;2023-05-24T06:48:45;100801.19;;;14.59;56.69
30708;BME280;17458;48.958;8.284;2023-05-24T06:51:29;100803.28;;;14.45;56.79
30708;BME280;17458;48.958;8.284;2023-05-24T06:54:13;100797.47;;;14.55;56.76
30708;BME280;17458;48.958;8.284;2023-05-24T06:56:57;100800.09;;;14.98;55.37
30708;BME280;17458;48.958;8.284;2023-05-24T06:59:41;100797.72;;;15.06;55.43
30708;BME280;17458;48.958;8.284;2023-05-24T07:02:25;100811.81;;;15.48;54.20
30708;BME280;17458;48.958;8.284;2023-05-24T07:05:11;100814.94;;;15.36;54.19
30708;BME280;17458;48.958;8.284;2023-05-24T07:07:55;100810.44;;;15.35;54.47
30708;BME280;17458;48.958;8.284;2023-05-24T07:10:39;100813.72;;;15.74;54.59
30708;BME280;17458;48.958;8.284;2023-05-24T07:13:23;100811.88;;;15.73;53.10
30708;BME280;17458;48.958;8.284;2023-05-24T07:16:07;100821.06;;;15.80;53.26
30708;BME280;17458;48.958;8.284;2023-05-24T07:18:51;100830.63;;;15.73;54.91
30708;BME280;17458;48.958;8.284;2023-05-24T07:21:35;100833.59;;;15.81;54.66
30708;BME280;17458;48.958;8.284;2023-05-24T07:24:20;100837.03;;;15.77;54.43
30708;BME280;17458;48.958;8.284;2023-05-24T07:27:05;100841.84;;;15.17;53.55
30708;BME280;17458;48.958;8.284;2023-05-24T07:29:49;100844.22;;;15.09;53.29
30708;BME280;17458;48.958;8.284;2023-05-24T07:32:33;100843.72;;;15.19;52.97
30708;BME280;17458;48.958;8.284;2023-05-24T07:35:17;100841.97;;;15.20;53.19
30708;BME280;17458;48.958;8.284;2023-05-24T07:38:02;100843.56;;;15.15;54.07
30708;BME280;17458;48.958;8.284;2023-05-24T07:40:46;100846.94;;;15.33;53.32
30708;BME280;17458;48.958;8.284;2023-05-24T07:43:30;100844.25;;;15.33;52.76
30708;BME280;17458;48.958;8.284;2023-05-24T07:46:14;100854.22;;;15.37;52.27
30708;BME280;17458;48.958;8.284;2023-05-24T07:48:58;100837.13;;;14.87;53.39
30708;BME280;17458;48.958;8.284;2023-05-24T07:51:42;100844.03;;;14.82;53.60
30708;BME280;17458;48.958;8.284;2023-05-24T07:54:26;100848.38;;;15.01;52.84
30708;BME280;17458;48.958;8.284;2023-05-24T07:57:10;100844.31;;;15.35;52.46
30708;BME280;17458;48.958;8.284;2023-05-24T07:59:54;100850.53;;;15.56;50.46
30708;BME280;17458;48.958;8.284;2023-05-24T08:02:38;100850.94;;;15.67;50.14
30708;BME280;17458;48.958;8.284;2023-05-24T08:05:23;100846.31;;;15.63;49.54
30708;BME280;17458;48.958;8.284;2023-05-24T08:08:07;100858.56;;;15.80;49.97
30708;BME280;17458;48.958;8.284;2023-05-24T08:10:51;100848.38;;;15.70;49.79
30708;BME280;17458;48.958;8.284;2023-05-24T08:13:35;100849.22;;;15.69;49.80
30708;BME280;17458;48.958;8.284;2023-05-24T08:16:19;100852.06;;;16.22;48.80
30708;BME280;17458;48.958;8.284;2023-05-24T08:19:03;100843.88;;;15.69;50.18
30708;BME280;17458;48.958;8.284;2023-05-24T08:21:48;100857.44;;;16.22;48.38
30708;BME280;17458;48.958;8.284;2023-05-24T08:24:33;100856.16;;;15.87;48.35
30708;BME280;17458;48.958;8.284;2023-05-24T08:27:17;100850.13;;;15.93;48.25
30708;BME280;17458;48.958;8.284;2023-05-24T08:30:01;100860.31;;;16.03;47.96
30708;BME280;17458;48.958;8.284;2023-05-24T08:32:47;100862.47;;;16.39;47.88
30708;BME280;17458;48.958;8.284;2023-05-24T08:35:31;100856.03;;;16.34;48.03
30708;BME280;17458;48.958;8.284;2023-05-24T08:38:15;100854.00;;;16.26;47.39
30708;BME280;17458;48.958;8.284;2023-05-24T08:41:04;100855.84;;;16.27;47.51
30708;BME280;17458;48.958;8.284;2023-05-24T08:43:49;100855.22;;;16.36;47.43
30708;BME280;17458;48.958;8.284;2023-05-24T08:46:35;100858.63;;;16.57;46.25
30708;BME280;17458;48.958;8.284;2023-05-24T08:49:19;100858.34;;;17.02;46.09
30708;BME280;17458;48.958;8.284;2023-05-24T08:52:05;100845.72;;;17.26;44.24
30708;BME280;17458;48.958;8.284;2023-05-24T08:54:50;100865.97;;;17.74;42.68
30708;BME280;17458;48.958;8.284;2023-05-24T08:57:36;100858.56;;;17.65;44.20
30708;BME280;17458;48.958;8.284;2023-05-24T09:00:24;100857.25;;;18.47;42.52
30708;BME280;17458;48.958;8.284;2023-05-24T09:03:09;100853.69;;;18.15;41.04
30708;BME280;17458;48.958;8.284;2023-05-24T09:05:53;100860.69;;;17.77;42.20
30708;BME280;17458;48.958;8.284;2023-05-24T09:08:39;100851.00;;;18.15;42.17
30708;BME280;17458;48.958;8.284;2023-05-24T09:11:24;100853.38;;;17.73;42.14
30708;BME280;17458;48.958;8.284;2023-05-24T09:14:10;100855.72;;;17.90;42.35
30708;BME280;17458;48.958;8.284;2023-05-24T09:16:53;100858.94;;;17.49;43.42
30708;BME280;17458;48.958;8.284;2023-05-24T09:19:38;100856.53;;;17.88;43.49
30708;BME280;17458;48.958;8.284;2023-05-24T09:22:24;100850.59;;;17.68;43.55
30708;BME280;17458;48.958;8.284;2023-05-24T09:25:12;100850.75;;;17.74;44.08
30708;BME280;17458;48.958;8.284;2023-05-24T09:27:56;100854.16;;;17.39;44.50
30708;BME280;17458;48.958;8.284;2023-05-24T09:30:43;100860.56;;;17.15;44.46
30708;BME280;17458;48.958;8.284;2023-05-24T09:33:28;100864.69;;;17.04;45.79
30708;BME280;17458;48.958;8.284;2023-05-24T09:36:16;100857.38;;;17.87;45.24
30708;BME280;17458;48.958;8.284;2023-05-24T09:39:08;100858.25;;;18.17;42.58
30708;BME280;17458;48.958;8.284;2023-05-24T09:41:52;100865.53;;;18.21;40.57
30708;BME280;17458;48.958;8.284;2023-05-24T09:44:39;100860.44;;;18.32;39.52
30708;BME280;17458;48.958;8.284;2023-05-24T09:47:28;100858.03;;;18.42;39.29
30708;BME280;17458;48.958;8.284;2023-05-24T09:50:16;100855.63;;;18.88;39.54
30708;BME280;17458;48.958;8.284;2023-05-24T09:53:01;100846.72;;;18.56;39.10
30708;BME280;17458;48.958;8.284;2023-05-24T09:55:46;100856.09;;;18.37;39.92
30708;BME280;17458;48.958;8.284;2023-05-24T09:58:32;100845.31;;;19.06;38.83
30708;BME280;17458;48.958;8.284;2023-05-24T10:01:16;100835.63;;;19.14;39.49
30708;BME280;17458;48.958;8.284;2023-05-24T10:04:01;100846.19;;;18.69;39.51
30708;BME280;17458;48.958;8.284;2023-05-24T10:06:49;100839.59;;;18.58;37.17
30708;BME280;17458;48.958;8.284;2023-05-24T10:09:34;100838.69;;;18.92;38.88
30708;BME280;17458;48.958;8.284;2023-05-24T10:12:19;100831.97;;;18.74;36.66
30708;BME280;17458;48.958;8.284;2023-05-24T10:15:06;100834.34;;;19.36;36.37
30708;BME280;17458;48.958;8.284;2023-05-24T10:17:51;100829.44;;;19.57;36.31
30708;BME280;17458;48.958;8.284;2023-05-24T10:20:35;100835.34;;;19.83;37.03
30708;BME280;17458;48.958;8.284;2023-05-24T10:23:19;100830.34;;;19.19;39.26
30708;BME280;17458;48.958;8.284;2023-05-24T10:26:06;100840.34;;;19.63;37.12
30708;BME280;17458;48.958;8.284;2023-05-24T10:28:54;100836.38;;;19.47;36.63
30708;BME280;17458;48.958;8.284;2023-05-24T10:31:40;100837.13;;;19.82;36.60
30708;BME280;17458;48.958;8.284;2023-05-24T10:34:26;100825.81;;;19.57;37.12
30708;BME280;17458;48.958;8.284;2023-05-24T10:37:10;100822.66;;;19.35;36.66
30708;BME280;17458;48.958;8.284;2023-05-24T10:39:54;100820.03;;;19.40;37.35
30708;BME280;17458;48.958;8.284;2023-05-24T10:42:45;100811.38;;;19.53;35.30
30708;BME280;17458;48.958;8.284;2023-05-24T10:45:30;100812.09;;;19.88;35.83
30708;BME280;17458;48.958;8.284;2023-05-24T10:51:30;100807.25;;;19.70;35.31
30708;BME280;17458;48.958;8.284;2023-05-24T10:54:17;100799.81;;;19.59;36.26
30708;BME280;17458;48.958;8.284;2023-05-24T10:57:02;100799.97;;;20.11;35.00
30708;BME280;17458;48.958;8.284;2023-05-24T10:59:47;100801.09;;;19.76;37.25
30708;BME280;17458;48.958;8.284;2023-05-24T11:02:34;100800.28;;;20.28;35.77
30708;BME280;17458;48.958;8.284;2023-05-24T11:05:18;100791.06;;;20.67;34.86
30708;BME280;17458;48.958;8.284;2023-05-24T11:08:06;100792.88;;;20.16;33.56
30708;BME280;17458;48.958;8.284;2023-05-24T11:11:07;100792.81;;;19.68;35.54
30708;BME280;17458;48.958;8.284;2023-05-24T11:13:55;100794.38;;;20.49;34.21
30708;BME280;17458;48.958;8.284;2023-05-24T11:16:44;100795.75;;;20.27;34.82
30708;BME280;17458;48.958;8.284;2023-05-24T11:19:44;100792.34;;;19.45;35.76
30708;BME280;17458;48.958;8.284;2023-05-24T11:22:29;100782.31;;;19.82;35.52
30708;BME280;17458;48.958;8.284;2023-05-24T11:25:14;100791.03;;;19.69;35.59
30708;BME280;17458;48.958;8.284;2023-05-24T11:27:59;100788.78;;;19.90;34.73
30708;BME280;17458;48.958;8.284;2023-05-24T11:30:45;100789.25;;;19.69;34.74
30708;BME280;17458;48.958;8.284;2023-05-24T11:33:30;100789.13;;;20.10;35.36
30708;BME280;17458;48.958;8.284;2023-05-24T11:36:15;100786.50;;;19.66;35.69
30708;BME280;17458;48.958;8.284;2023-05-24T11:38:59;100786.66;;;19.74;36.44
30708;BME280;17458;48.958;8.284;2023-05-24T11:41:44;100783.34;;;19.87;35.75
30708;BME280;17458;48.958;8.284;2023-05-24T11:44:30;100785.16;;;19.46;35.68
30708;BME280;17458;48.958;8.284;2023-05-24T11:47:14;100785.94;;;19.40;36.30
30708;BME280;17458;48.958;8.284;2023-05-24T11:49:58;100781.97;;;19.22;35.71
30708;BME280;17458;48.958;8.284;2023-05-24T11:52:42;100781.63;;;19.94;36.32
30708;BME280;17458;48.958;8.284;2023-05-24T11:55:27;100768.78;;;19.77;36.03
30708;BME280;17458;48.958;8.284;2023-05-24T11:58:25;100771.38;;;19.73;36.00
30708;BME280;17458;48.958;8.284;2023-05-24T12:01:25;100772.91;;;20.57;37.34
30708;BME280;17458;48.958;8.284;2023-05-24T12:04:10;100768.88;;;20.86;37.00
30708;BME280;17458;48.958;8.284;2023-05-24T12:06:54;100771.53;;;20.83;35.71
30708;BME280;17458;48.958;8.284;2023-05-24T12:09:38;100754.09;;;21.21;35.67
30708;BME280;17458;48.958;8.284;2023-05-24T12:12:22;100773.78;;;20.04;35.87
30708;BME280;17458;48.958;8.284;2023-05-24T12:15:07;100766.16;;;19.82;36.22
30708;BME280;17458;48.958;8.284;2023-05-24T12:17:51;100763.28;;;19.31;36.03
30708;BME280;17458;48.958;8.284;2023-05-24T12:20:37;100765.63;;;20.01;36.46
30708;BME280;17458;48.958;8.284;2023-05-24T12:23:26;100765.47;;;19.94;36.36
30708;BME280;17458;48.958;8.284;2023-05-24T12:26:12;100764.31;;;19.36;36.56
30708;BME280;17458;48.958;8.284;2023-05-24T12:28:58;100756.72;;;20.05;37.27
30708;BME280;17458;48.958;8.284;2023-05-24T12:31:47;100764.91;;;20.11;35.95
30708;BME280;17458;48.958;8.284;2023-05-24T12:34:32;100757.50;;;19.53;35.95
30708;BME280;17458;48.958;8.284;2023-05-24T12:37:16;100741.28;;;19.98;36.34
30708;BME280;17458;48.958;8.284;2023-05-24T12:40:01;100746.69;;;19.98;36.24
30708;BME280;17458;48.958;8.284;2023-05-24T12:42:53;100749.69;;;20.15;36.38
30708;BME280;17458;48.958;8.284;2023-05-24T12:45:40;100745.38;;;20.26;38.92
30708;BME280;17458;48.958;8.284;2023-05-24T12:48:24;100749.91;;;20.81;36.26
30708;BME280;17458;48.958;8.284;2023-05-24T12:51:08;100731.88;;;20.77;38.52
30708;BME280;17458;48.958;8.284;2023-05-24T12:54:00;100738.97;;;20.18;36.21
30708;BME280;17458;48.958;8.284;2023-05-24T12:56:47;100727.44;;;20.84;35.73
30708;BME280;17458;48.958;8.284;2023-05-24T12:59:32;100732.34;;;21.12;35.14
30708;BME280;17458;48.958;8.284;2023-05-24T13:02:16;100730.25;;;20.93;36.58
30708;BME280;17458;48.958;8.284;2023-05-24T13:05:00;100729.16;;;20.76;35.51
30708;BME280;17458;48.958;8.284;2023-05-24T13:07:44;100729.97;;;21.37;35.29
30708;BME280;17458;48.958;8.284;2023-05-24T13:10:28;100723.81;;;20.82;34.33
30708;BME280;17458;48.958;8.284;2023-05-24T13:13:12;100718.03;;;20.56;34.69
30708;BME280;17458;48.958;8.284;2023-05-24T13:15:56;100718.59;;;20.94;32.81
30708;BME280;17458;48.958;8.284;2023-05-24T13:18:40;100720.97;;;20.71;32.79
30708;BME280;17458;48.958;8.284;2023-05-24T13:21:24;100711.66;;;21.13;33.68
30708;BME280;17458;48.958;8.284;2023-05-24T13:24:08;100719.03;;;20.61;33.62
30708;BME280;17458;48.958;8.284;2023-05-24T13:26:52;100718.59;;;20.96;33.86
30708;BME280;17458;48.958;8.284;2023-05-24T13:29:36;100702.88;;;21.29;34.13
30708;BME280;17458;48.958;8.284;2023-05-24T13:32:20;100710.22;;;20.74;34.20
30708;BME280;17458;48.958;8.284;2023-05-24T13:35:05;100700.72;;;21.04;34.43
30708;BME280;17458;48.958;8.284;2023-05-24T13:37:49;100699.19;;;21.19;33.60
30708;BME280;17458;48.958;8.284;2023-05-24T13:40:38;100708.91;;;21.11;32.76
30708;BME280;17458;48.958;8.284;2023-05-24T13:43:22;100704.50;;;20.53;32.84
30708;BME280;17458;48.958;8.284;2023-05-24T13:46:07;100695.47;;;21.14;32.86
30708;BME280;17458;48.958;8.284;2023-05-24T13:48:52;100707.03;;;21.04;32.65
30708;BME280;17458;48.958;8.284;2023-05-24T13:51:36;100712.78;;;21.29;32.49
30708;BME280;17458;48.958;8.284;2023-05-24T13:54:21;100703.06;;;20.79;33.40
30708;BME280;17458;48.958;8.284;2023-05-24T13:57:05;100699.00;;;21.10;32.91
30708;BME280;17458;48.958;8.284;2023-05-24T13:59:49;100705.84;;;21.52;33.81
30708;BME280;17458;48.958;8.284;2023-05-24T14:02:33;100698.97;;;21.09;33.00
30708;BME280;17458;48.958;8.284;2023-05-24T14:05:18;100704.38;;;21.09;34.08
30708;BME280;17458;48.958;8.284;2023-05-24T14:08:02;100699.00;;;21.10;33.48
30708;BME280;17458;48.958;8.284;2023-05-24T14:10:49;100693.16;;;21.48;32.11
30708;BME280;17458;48.958;8.284;2023-05-24T14:13:34;100706.28;;;21.16;32.27
30708;BME280;17458;48.958;8.284;2023-05-24T14:16:18;100695.81;;;21.40;32.33
30708;BME280;17458;48.958;8.284;2023-05-24T14:19:02;100695.47;;;21.14;32.48
30708;BME280;17458;48.958;8.284;2023-05-24T14:21:46;100701.03;;;21.27;31.64
30708;BME280;17458;48.958;8.284;2023-05-24T14:24:30;100700.63;;;20.96;32.62
30708;BME280;17458;48.958;8.284;2023-05-24T14:27:14;100694.75;;;20.63;33.98
30708;BME280;17458;48.958;8.284;2023-05-24T14:29:58;100698.56;;;20.77;32.43
30708;BME280;17458;48.958;8.284;2023-05-24T14:32:42;100703.56;;;20.51;33.46
30708;BME280;17458;48.958;8.284;2023-05-24T14:35:26;100701.94;;;20.62;32.33
30708;BME280;17458;48.958;8.284;2023-05-24T14:38:10;100689.56;;;20.22;33.22